Latest Weather Observations for Mount Hotham Airport

IDV60801

Issued at 11:52 pm EST Tuesday 17 May 2022 (issued every 10 minutes, with the page automatically refreshed every 10 minutes)

About weather observations | Map of weather stations | Latest weather observations for VIC | Other Formats
Station Details ID: 083055 Name: MOUNT HOTHAM AIRPORT Lat: -37.05 Lon: 147.33 Height: 1295.4 m
Data from the previous 72 hours. | See also: Recent months at Mount Hotham Airport
Date/Time
EST
Temp
°C
App
Temp
°C
Dew
Point
°C
Rel
Hum
%
Delta-T
°C
Wind Press
QNH
hPa
Press
MSL
hPa
Rain since
9am
mm
Dir  Spd
km/h
Gust
km/h
Spd
kts
Gust
kts
17/11:30pm 2.8 -4.6 -1.0 76 1.5 WNW 28 50 15 27 1016.9 1016.8 0.0
17/11:00pm 3.0 -4.4 -0.8 76 1.5 WNW 28 48 15 26 1017.0 1016.9 0.0
17/10:52pm 3.0 -4.4 -0.6 77 1.4 WNW 28 48 15 26 1017.1 1017.0 0.0
17/10:30pm 3.0 -3.6 -0.6 77 1.4 NW 24 41 13 22 1017.4 1017.4 0.0
17/10:00pm 3.1 -3.4 0.0 80 1.3 NW 24 37 13 20 1017.7 1017.6 0.0
17/09:30pm 2.7 -3.1 -0.1 82 1.1 NW 20 33 11 18 1017.6 1017.5 0.0
17/09:09pm 2.8 -3.4 -0.5 79 1.3 NW 22 33 12 18 1017.6 1017.5 0.0
17/09:08pm 2.8 -3.4 -0.5 79 1.3 NW 22 37 12 20 1017.6 1017.5 0.0
17/09:00pm 2.9 -3.3 -0.5 78 1.4 NW 22 37 12 20 1017.8 1017.7 0.0
17/08:30pm 3.0 -3.5 0.1 81 1.2 NW 24 37 13 20 1017.7 1017.6 0.0
17/08:02pm 3.4 -2.4 -0.4 76 1.5 NW 20 39 11 21 1017.7 1017.6 0.0
17/08:00pm 3.3 -2.9 -0.5 76 1.5 NW 22 39 12 21 1017.7 1017.6 0.0
17/07:30pm 3.2 -2.7 -1.0 74 1.7 NW 20 35 11 19 1017.6 1017.5 0.0
17/07:05pm 2.4 -3.6 -1.4 76 1.5 NW 20 32 11 17 1017.8 1017.7 0.0
17/07:00pm 2.5 -3.9 -1.5 75 1.6 NW 22 39 12 21 1017.8 1017.7 0.0
17/06:30pm 2.3 -4.8 -1.1 78 1.3 NW 26 43 14 23 1017.6 1017.5 0.0
17/06:00pm 2.4 -2.9 -0.9 79 1.3 NW 17 26 9 14 1017.4 1017.4 0.0
17/05:30pm 2.7 -4.7 -0.7 78 1.4 NW 28 50 15 27 1017.4 1017.4 0.0
17/05:27pm 2.8 -4.6 -0.8 77 1.4 NW 28 50 15 27 1017.3 1017.3 0.0
17/05:00pm 3.0 -3.6 -0.6 77 1.4 NW 24 39 13 21 1017.1 1017.0 0.0
17/04:30pm 3.3 -3.8 -0.9 74 1.7 NW 26 44 14 24 1017.1 1017.0 0.0
17/04:00pm 3.7 -3.3 -0.7 73 1.8 NW 26 37 14 20 1017.1 1017.0 0.0
17/03:55pm 4.0 -3.0 -0.6 72 1.9 NW 26 37 14 20 1017.1 1017.0 0.0
17/03:40pm 4.1 -1.5 -0.3 73 1.8 NW 19 30 10 16 1017.0 1016.9 0.0
17/03:30pm 4.3 -2.7 -0.7 70 2.0 NW 26 44 14 24 1017.0 1016.9 0.0
17/03:00pm 4.5 -1.2 0.3 74 1.7 NW 20 33 11 18 1016.8 1016.7 0.0
17/02:34pm 4.1 -1.8 -0.5 72 1.9 NW 20 32 11 17 1016.8 1016.7 0.0
17/02:30pm 4.2 -1.6 -0.2 73 1.8 NW 20 32 11 17 1016.8 1016.7 0.0
17/02:00pm 6.1 -0.4 0.0 65 2.6 NNW 24 39 13 21 1016.7 1016.6 0.0
17/01:30pm 7.0 1.9 0.5 63 2.8 NW 17 32 9 17 1016.9 1016.8 0.0
17/01:00pm 6.0 0.0 -1.2 60 2.9 NW 20 32 11 17 1017.0 1016.9 0.0
17/12:30pm 6.3 0.0 -0.7 61 2.9 NNW 22 35 12 19 1017.1 1017.0 0.0
17/12:00pm 6.3 0.1 -0.2 63 2.7 NW 22 32 12 17 1017.4 1017.4 0.0
17/11:30am 5.8 -0.2 -1.3 60 2.9 NW 20 32 11 17 1017.7 1017.6 0.0
17/11:00am 5.5 0.2 -0.5 65 2.5 NNW 17 32 9 17 1017.7 1017.6 0.0
17/10:30am 5.3 -0.1 -1.2 63 2.6 WNW 17 33 9 18 1017.9 1017.8 0.0
17/10:00am 5.2 -0.5 -0.8 65 2.4 WNW 19 35 10 19 1018.0 1018.0 0.0
17/09:30am 4.6 -0.7 -0.6 69 2.1 WNW 17 26 9 14 1017.7 1017.6 0.0
17/09:00am 4.1 -0.5 -1.1 69 2.1 WNW 13 24 7 13 1017.8 1017.7 0.2
17/08:30am 3.5 0.0 -1.3 71 1.9 NW 7 17 4 9 1017.7 1017.6 0.2
17/08:00am 2.9 -1.3 -1.1 75 1.6 NNW 11 26 6 14 1017.3 1017.3 0.2
17/07:30am 1.3 -3.8 -1.9 79 1.2 NW 15 20 8 11 1017.0 1016.9 0.2
17/07:00am 1.3 -4.8 -2.3 77 1.4 WNW 20 32 11 17 1016.7 1016.6 0.2
17/06:30am 1.0 -3.4 -2.1 80 1.2 WNW 11 19 6 10 1016.4 1016.3 0.2
17/06:00am 1.6 -3.5 -1.8 78 1.3 WNW 15 24 8 13 1016.3 1016.2 0.2
17/05:30am 1.8 -4.6 -1.4 79 1.2 WNW 22 35 12 19 1016.0 1015.9 0.2
17/05:00am 2.0 -3.7 -1.1 80 1.2 WNW 19 26 10 14 1015.9 1015.7 0.2
17/04:30am 1.9 -3.5 -1.3 79 1.2 WNW 17 24 9 13 1015.6 1015.5 0.2
17/04:00am 2.2 -3.2 -1.1 79 1.3 WNW 17 28 9 15 1015.5 1015.4 0.2
17/03:52am 2.0 -3.4 -1.1 80 1.2 WNW 17 26 9 14 1015.5 1015.4 0.2
17/03:34am 1.8 -2.4 -0.6 84 0.9 WNW 11 19 6 10 1015.4 1015.3 0.2
17/03:30am 1.9 -2.3 -0.8 82 1.1 WNW 11 19 6 10 1015.3 1015.2 0.2
17/03:00am 2.8 -2.5 -0.5 79 1.3 WNW 17 24 9 13 1015.4 1015.3 0.2
17/02:30am 2.5 -0.9 -0.6 80 1.2 WNW 7 15 4 8 1015.7 1015.6 0.2
17/02:15am 3.1 -1.4 -0.2 79 1.3 NW 13 17 7 9 1015.7 1015.6 0.2
17/02:00am 3.0 -0.7 0.2 82 1.1 WNW 9 15 5 8 1015.7 1015.6 0.2
17/01:58am 3.0 -0.7 0.2 82 1.1 WNW 9 15 5 8 1015.7 1015.6 0.2
17/01:30am 3.3 -1.2 0.0 79 1.3 NW 13 22 7 12 1015.7 1015.6 0.2
17/01:10am 3.6 -0.4 0.7 81 1.2 W 11 20 6 11 1015.9 1015.7 0.2
17/01:00am 3.7 -0.7 0.4 79 1.4 WNW 13 24 7 13 1015.9 1015.7 0.2
17/12:30am 3.2 -1.6 0.3 81 1.2 WNW 15 22 8 12 1015.6 1015.5 0.2
17/12:00am 3.6 -1.5 0.7 81 1.2 NW 17 28 9 15 1015.6 1015.5 0.2
 
Date/Time
EST
Temp
°C
App
Temp
°C
Dew
Point
°C
Rel
Hum
%
Delta-T
°C
Wind Press
QNH
hPa
Press
MSL
hPa
Rain since
9am
mm
Dir  Spd
km/h
Gust
km/h
Spd
kts
Gust
kts
16/11:30pm 3.9 -1.3 0.2 77 1.5 WNW 17 28 9 15 1015.7 1015.6 0.2
16/11:00pm 4.2 -0.1 0.7 78 1.5 WNW 13 24 7 13 1015.6 1015.5 0.2
16/10:30pm 4.3 -0.8 0.8 78 1.5 WNW 17 43 9 23 1015.6 1015.5 0.2
16/10:00pm 4.7 -0.7 2.2 84 1.1 WNW 20 33 11 18 1015.4 1015.3 0.2
16/09:30pm 4.5 -0.8 3.0 90 0.7 WNW 20 32 11 17 1015.2 1015.0 0.2
16/09:22pm 4.5 -0.9 2.7 88 0.8 WNW 20 37 11 20 1015.1 1014.9 0.2
16/09:00pm 4.7 -1.2 3.8 94 0.4 NW 24 41 13 22 1015.0 1014.8 0.2
16/08:38pm 4.8 -0.7 3.8 93 0.5 WNW 22 43 12 23 1014.8 1014.7 0.2
16/08:30pm 4.8 -0.4 3.6 92 0.5 WNW 20 33 11 18 1014.8 1014.7 0.2
16/08:25pm 4.8 -0.4 3.8 93 0.5 WNW 20 33 11 18 1014.8 1014.7 0.2
16/08:00pm 4.9 -0.9 4.2 95 0.3 NW 24 39 13 21 1014.7 1014.6 0.2
16/07:54pm 5.1 -1.6 3.9 92 0.5 NW 28 46 15 25 1014.8 1014.7 0.0
16/07:30pm 4.9 -0.2 4.0 94 0.4 WNW 20 32 11 17 1014.7 1014.6 0.0
16/07:00pm 4.9 1.1 3.9 93 0.5 WNW 13 24 7 13 1013.9 1013.8 0.0
16/06:30pm 5.1 -0.1 3.3 88 0.8 WNW 20 35 11 19 1013.7 1013.5 0.0
16/06:14pm 5.4 -0.7 2.6 82 1.2 NW 24 41 13 22 1013.4 1013.2 0.0
16/06:00pm 6.0 0.7 1.7 74 1.9 NW 19 35 10 19 1013.4 1013.2 0.0
16/05:30pm 5.7 0.3 1.1 72 2.0 NNW 19 37 10 20 1013.1 1012.9 0.0
16/05:00pm 6.2 0.6 1.5 72 2.1 NW 20 41 11 22 1013.3 1013.1 0.0
16/04:30pm 6.3 0.3 0.8 68 2.4 NW 22 41 12 22 1013.0 1012.8 0.0
16/04:00pm 6.8 0.8 1.3 68 2.4 NW 22 37 12 20 1012.8 1012.6 0.0
16/03:43pm 6.9 -0.1 1.8 70 2.3 NW 28 46 15 25 1012.8 1012.6 0.0
16/03:30pm 7.7 1.5 2.0 67 2.5 NW 24 48 13 26 1012.8 1012.6 0.0
16/03:00pm 6.9 -0.2 1.4 68 2.4 NW 28 44 15 24 1012.8 1012.6 0.0
16/02:30pm 7.4 0.7 1.3 65 2.7 NW 26 41 14 22 1012.8 1012.6 0.0
16/02:00pm 7.6 1.2 1.0 63 2.9 NW 24 46 13 25 1012.8 1012.6 0.0
16/01:30pm 7.5 0.8 1.6 66 2.6 NW 26 52 14 28 1012.8 1012.6 0.0
16/01:14pm 7.2 0.5 1.3 66 2.6 NW 26 56 14 30 1013.0 1012.8 0.0
16/01:00pm 7.7 1.4 1.5 65 2.7 NW 24 46 13 25 1013.3 1013.1 0.0
16/12:38pm 7.4 1.7 0.8 63 2.9 NNW 20 57 11 31 1013.6 1013.4 0.0
16/12:30pm 7.2 2.1 0.9 64 2.7 NW 17 28 9 15 1013.6 1013.4 0.0
16/12:00pm 7.8 1.0 1.0 62 3.0 NNW 26 50 14 27 1013.8 1013.6 0.0
16/11:59am 8.0 1.2 1.0 61 3.1 NNW 26 50 14 27 1013.8 1013.6 0.0
16/11:30am 7.5 1.6 1.4 65 2.7 NW 22 43 12 23 1014.2 1014.0 0.0
16/11:00am 8.0 0.1 1.0 61 3.1 NW 32 50 17 27 1014.3 1014.1 0.0
16/10:32am 7.0 -0.2 0.7 64 2.7 NNW 28 48 15 26 1014.5 1014.3 0.0
16/10:30am 7.7 1.4 1.8 66 2.6 NNW 24 41 13 22 1014.5 1014.3 0.0
16/10:08am 6.5 -0.7 0.8 67 2.4 NW 28 48 15 26 1014.5 1014.3 0.0
16/10:00am 7.2 1.7 2.1 70 2.3 NW 20 39 11 21 1014.4 1014.2 0.0
16/09:40am 6.6 -0.6 0.9 67 2.5 NW 28 50 15 27 1014.2 1014.0 0.0
16/09:30am 7.5 2.2 1.6 66 2.6 NW 19 32 10 17 1014.0 1013.9 0.0
16/09:00am 7.2 1.3 1.7 68 2.4 NW 22 41 12 22 1013.8 1013.6 0.0
16/08:30am 7.0 2.4 1.3 67 2.5 NW 15 30 8 16 1013.5 1013.3 0.0
16/08:00am 6.4 1.0 1.1 69 2.3 NW 19 37 10 20 1013.3 1013.1 0.0
16/07:30am 5.7 1.4 0.9 71 2.1 NW 13 24 7 13 1013.0 1012.8 0.0
16/07:13am 6.1 0.7 1.1 70 2.2 NNW 19 46 10 25 1012.9 1012.7 0.0
16/07:00am 6.2 0.8 1.1 70 2.2 NNW 19 41 10 22 1012.8 1012.6 0.0
16/06:30am 6.3 1.6 1.2 70 2.2 NNW 15 41 8 22 1012.7 1012.5 0.0
16/06:00am 6.5 2.2 1.0 68 2.4 NW 13 30 7 16 1012.5 1012.2 0.0
16/05:30am 6.4 3.3 1.1 69 2.3 WNW 7 20 4 11 1012.5 1012.2 0.0
16/05:00am 6.7 1.7 1.6 70 2.2 NW 17 33 9 18 1012.5 1012.2 0.0
16/04:30am 6.9 1.6 2.0 71 2.2 NW 19 37 10 20 1012.5 1012.2 0.0
16/04:00am 7.3 2.5 2.6 72 2.1 NW 17 33 9 18 1012.1 1011.9 0.0
16/03:32am 7.5 1.0 2.8 72 2.1 WNW 26 43 14 23 1012.0 1011.8 0.0
16/03:30am 7.6 1.5 2.9 72 2.1 WNW 24 43 13 23 1011.9 1011.7 0.0
16/03:00am 7.6 3.8 4.0 78 1.7 WNW 13 46 7 25 1012.0 1011.8 0.0
16/02:31am 7.8 1.3 4.6 80 1.5 WNW 28 54 15 29 1011.6 1011.3 0.0
16/02:30am 7.8 1.7 4.6 80 1.5 WNW 26 46 14 25 1011.7 1011.4 0.0
16/02:00am 7.9 1.3 4.3 78 1.7 WNW 28 54 15 29 1011.6 1011.3 0.0
16/01:59am 7.9 1.3 4.3 78 1.7 WNW 28 54 15 29 1011.4 1011.2 0.0
16/01:55am 7.9 2.0 4.1 77 1.8 NW 24 50 13 27 1011.6 1011.3 0.0
16/01:30am 8.0 0.0 4.0 76 1.9 WNW 35 70 19 38 1011.4 1011.2 0.0
16/01:24am 8.3 0.4 4.1 75 2.0 NW 35 54 19 29 1011.4 1011.2 0.0
16/01:00am 8.5 1.0 4.5 76 1.9 NW 33 59 18 32 1011.4 1011.2 0.0
16/12:32am 8.6 0.4 4.8 77 1.8 NW 37 70 20 38 1011.2 1011.0 0.0
16/12:30am 8.6 0.8 5.0 78 1.7 NW 35 52 19 28 1011.3 1011.1 0.0
16/12:02am 9.0 -0.3 4.8 75 2.0 NW 43 74 23 40 1011.1 1010.8 0.0
16/12:00am 9.1 0.5 4.9 75 2.0 NW 39 70 21 38 1011.1 1010.8 0.0
 
Date/Time
EST
Temp
°C
App
Temp
°C
Dew
Point
°C
Rel
Hum
%
Delta-T
°C
Wind Press
QNH
hPa
Press
MSL
hPa
Rain since
9am
mm
Dir  Spd
km/h
Gust
km/h
Spd
kts
Gust
kts
15/11:34pm 9.3 1.0 4.3 71 2.4 NW 37 72 20 39 1011.3 1011.1 0.0
15/11:30pm 9.2 1.3 4.4 72 2.3 NW 35 54 19 29 1011.4 1011.2 0.0
15/11:00pm 9.0 -0.1 4.2 72 2.3 NW 41 65 22 35 1011.6 1011.3 0.0
15/10:41pm 9.0 0.3 4.0 71 2.4 NW 39 67 21 36 1011.7 1011.4 0.0
15/10:30pm 9.0 2.1 4.6 74 2.1 NW 30 48 16 26 1011.7 1011.4 0.0
15/10:00pm 9.2 1.9 4.4 72 2.3 NW 32 56 17 30 1011.8 1011.5 0.0
15/09:30pm 9.0 1.0 3.8 70 2.4 NW 35 61 19 33 1012.0 1011.8 0.0
15/09:00pm 8.9 0.9 3.9 71 2.4 NW 35 56 19 30 1011.9 1011.7 0.0
15/08:30pm 9.0 1.0 4.0 71 2.4 NW 35 61 19 33 1011.9 1011.7 0.0
15/08:09pm 8.8 1.2 3.8 71 2.4 NW 33 56 18 30 1011.9 1011.7 0.0
15/08:00pm 8.8 0.8 3.8 71 2.4 NW 35 52 19 28 1011.8 1011.5 0.0
15/07:32pm 8.7 1.7 3.9 72 2.3 NW 30 48 16 26 1012.0 1011.8 0.0
15/07:30pm 8.7 1.3 3.9 72 2.3 NW 32 48 17 26 1011.9 1011.7 0.0
15/07:07pm 8.9 2.3 4.1 72 2.3 NW 28 57 15 31 1012.1 1011.9 0.0
15/07:00pm 8.6 2.7 3.8 72 2.3 NW 24 46 13 25 1012.1 1011.9 0.0
15/06:30pm 8.9 2.3 4.3 73 2.2 NW 28 50 15 27 1012.0 1011.8 0.0
15/06:26pm 9.0 2.5 4.6 74 2.1 NW 28 50 15 27 1011.9 1011.7 0.0
15/06:00pm 9.1 3.9 5.3 77 1.9 NW 22 35 12 19 1012.0 1011.8 0.0
15/05:30pm 9.0 4.3 5.0 76 1.9 NNW 19 32 10 17 1012.2 1012.0 0.0
15/05:00pm 9.4 4.6 4.8 73 2.2 NW 19 30 10 16 1012.3 1012.1 0.0
15/04:30pm 9.4 5.3 4.6 72 2.3 NNW 15 24 8 13 1012.3 1012.1 0.0
15/04:00pm 9.7 4.2 4.1 68 2.7 NW 22 41 12 22 1012.5 1012.2 0.0
15/03:30pm 11.4 8.0 4.2 61 3.5 NW 11 24 6 13 1012.2 1012.0 0.0
15/03:06pm 10.8 4.1 3.6 61 3.4 NW 28 50 15 27 1012.3 1012.1 0.0
15/03:00pm 10.9 5.6 3.0 58 3.7 NW 20 43 11 23 1012.3 1012.1 0.0
15/02:30pm 10.8 6.0 4.9 67 2.9 NNW 19 37 10 20 1012.6 1012.4 0.0
15/02:00pm 11.1 6.1 4.8 65 3.1 NNW 20 35 11 19 1012.6 1012.4 0.0
15/01:51pm 11.0 4.5 4.9 66 3.0 NNW 28 50 15 27 1012.5 1012.2 0.0
15/01:30pm 10.6 6.2 4.9 68 2.8 NNW 17 33 9 18 1012.9 1012.7 0.0
15/01:00pm 11.1 4.3 5.2 67 2.9 NNW 30 43 16 23 1013.0 1012.8 0.0
15/12:30pm 11.6 6.2 6.5 71 2.6 NNW 24 37 13 20 1013.6 1013.4 0.0
15/12:00pm 10.4 4.9 5.8 73 2.3 NW 24 37 13 20 1014.0 1013.9 0.0
15/11:30am 11.2 4.2 5.9 70 2.7 NW 32 43 17 23 1014.2 1014.0 0.0
15/11:05am 11.4 3.9 6.1 70 2.7 NW 35 50 19 27 1014.5 1014.3 0.0
15/11:00am 10.9 3.9 5.9 71 2.5 NW 32 44 17 24 1014.6 1014.5 0.0
15/10:30am 11.5 5.8 6.8 73 2.4 NW 26 43 14 23 1015.2 1015.0 0.0
15/10:00am 10.2 5.7 6.2 76 2.0 NW 19 35 10 19 1015.3 1015.2 0.0
15/09:30am 9.8 6.2 6.7 81 1.6 NW 15 28 8 15 1015.5 1015.4 0.0
15/09:00am 8.7 5.6 7.2 90 0.8 NNW 13 26 7 14 1015.7 1015.6 0.0
15/08:30am 8.7 5.7 5.8 82 1.4 N 11 24 6 13 1015.7 1015.6 0.0
15/08:24am 8.9 5.4 5.6 80 1.6 NNW 13 24 7 13 1015.7 1015.6 0.0
15/08:00am 8.5 4.1 4.9 78 1.7 NNW 17 28 9 15 1015.6 1015.5 0.0
15/07:30am 8.4 5.5 4.6 77 1.8 NNE 9 15 5 8 1015.5 1015.4 0.0
15/07:00am 8.0 5.1 4.6 79 1.6 NNE 9 17 5 9 1015.5 1015.4 0.0
15/06:30am 6.8 5.1 4.1 83 1.3 ENE 2 6 1 3 1015.1 1014.9 0.0
15/06:00am 7.4 4.9 4.0 79 1.6 N 6 13 3 7 1015.1 1014.9 0.0
15/05:30am 8.5 5.1 3.8 72 2.2 NNW 11 17 6 9 1015.0 1014.8 0.0
15/05:00am 8.5 5.4 3.8 72 2.2 NNW 9 22 5 12 1014.8 1014.7 0.0
15/04:30am 8.5 5.7 3.4 70 2.4 NE 7 17 4 9 1014.6 1014.5 0.0
15/04:00am 8.8 4.8 4.8 76 1.9 NNW 15 35 8 19 1015.1 1014.9 0.0
15/03:33am 8.9 4.8 6.0 82 1.4 NNW 17 26 9 14 1015.2 1015.0 0.0
15/03:30am 8.9 5.2 6.2 83 1.3 NNW 15 26 8 14 1015.2 1015.0 0.0
15/03:22am 9.1 5.8 6.5 84 1.3 NNW 13 26 7 14 1015.6 1015.5 0.0
15/03:00am 9.4 6.8 6.3 81 1.5 NNW 9 19 5 10 1015.5 1015.4 0.0
15/02:30am 9.4 6.6 6.8 84 1.3 NW 11 22 6 12 1015.3 1015.2 0.0
15/02:00am 9.2 6.8 7.2 87 1.0 NW 9 17 5 9 1015.4 1015.3 0.0
15/01:30am 9.2 7.2 7.0 86 1.1 NNW 7 11 4 6 1015.1 1014.9 0.0
15/01:00am 9.9 6.0 7.0 82 1.5 NNW 17 32 9 17 1015.2 1015.0 0.0
15/12:30am 9.9 5.3 6.4 79 1.8 NNW 20 32 11 17 1015.7 1015.6 0.0
15/12:00am 9.9 5.4 6.3 78 1.8 NW 19 28 10 15 1016.0 1015.9 0.0

Other formats

Comma delimited format used in spreadsheet applications
http://www.bom.gov.au/fwo/IDV60801/IDV60801.94905.axf

JavaScript Object Notation format (JSON) in row-major order
http://www.bom.gov.au/fwo/IDV60801/IDV60801.94905.json

Data quality

Most of these data are generated automatically and are frequently updated. Quality checks on data are not normally performed. It is possible for incorrect values to appear. Refer to information at About Latest Weather Observations and please check the disclaimer before using these data.